Time;durP1;ratioP1;P1;durP2;ratioP2;P2;SDS_P1;SDS_P2;PMS_P1;PMS_P2;Temp;Humidity;BMP_temperature;BMP_pressure;BME280_temperature;BME280_humidity;BME280_pressure;Samples;Min_cycle;Max_cycle;Signal;HPM_P1;HPM_P2
2022/04/06 00:01:43;;;;;;;29.73;9.82;;;10.30;73.80;;;;;;5100911;28;20425;-75
2022/04/06 00:04:09;;;;;;;20.02;9.25;;;10.30;72.10;;;;;;5083445;28;20398;-74
2022/04/06 00:06:34;;;;;;;27.70;10.30;;;10.40;69.10;;;;;;5094002;28;20389;-74
2022/04/06 00:09:00;;;;;;;26.50;10.03;;;10.40;69.80;;;;;;5093785;28;20378;-76
2022/04/06 00:11:26;;;;;;;22.35;9.52;;;10.30;70.80;;;;;;5093023;28;20714;-74
2022/04/06 00:13:51;;;;;;;29.13;9.80;;;10.30;70.40;;;;;;5093233;28;20414;-75
2022/04/06 00:16:17;;;;;;;23.30;9.88;;;10.30;71.20;;;;;;5100988;28;20386;-77
2022/04/06 00:18:43;;;;;;;19.25;8.80;;;10.30;72.00;;;;;;5095337;28;20746;-75
2022/04/06 00:21:08;;;;;;;26.70;8.50;;;10.30;69.00;;;;;;5093673;28;20373;-75
2022/04/06 00:23:34;;;;;;;22.17;9.00;;;10.30;67.50;;;;;;5093432;28;20862;-75
2022/04/06 00:26:00;;;;;;;25.33;8.98;;;10.30;70.10;;;;;;5093426;28;20417;-76
2022/04/06 00:28:25;;;;;;;22.70;10.00;;;10.30;70.50;;;;;;5094588;28;20946;-76
2022/04/06 00:30:51;;;;;;;22.23;9.55;;;10.30;70.90;;;;;;5093839;28;20393;-75
2022/04/06 00:33:16;;;;;;;16.77;9.20;;;10.30;69.80;;;;;;5093698;28;20413;-77
2022/04/06 00:35:42;;;;;;;24.47;8.53;;;10.30;70.50;;;;;;5093212;28;20441;-77
2022/04/06 00:38:09;;;;;;;24.48;9.88;;;10.20;70.30;;;;;;5092913;28;20425;-75
2022/04/06 00:40:35;;;;;;;22.48;9.15;;;10.20;71.70;;;;;;5092885;28;20939;-74
2022/04/06 00:43:07;;;;;;;23.48;9.30;;;10.30;71.40;;;;;;5092559;28;20432;-75
2022/04/06 00:45:33;;;;;;;21.05;8.25;;;10.30;68.30;;;;;;5076843;28;20386;-76
2022/04/06 00:47:58;;;;;;;27.67;9.18;;;10.30;67.60;;;;;;5095875;28;20862;-75
2022/04/06 00:50:24;;;;;;;24.53;8.87;;;10.30;66.70;;;;;;5093411;28;20448;-75
2022/04/06 00:52:56;;;;;;;21.80;9.48;;;10.30;68.80;;;;;;5092852;28;20769;-75
2022/04/06 00:55:29;;;;;;;18.75;9.52;;;10.30;68.40;;;;;;5072135;28;20462;-75
2022/04/06 00:57:56;;;;;;;19.92;8.90;;;10.30;66.50;;;;;;5072841;28;20718;-76
2022/04/06 01:00:22;;;;;;;22.42;8.48;;;10.40;65.50;;;;;;5072862;28;20391;-76
2022/04/06 01:02:47;;;;;;;23.45;8.93;;;10.30;66.10;;;;;;5073168;28;20376;-76
2022/04/06 01:05:13;;;;;;;25.95;9.57;;;10.30;65.10;;;;;;5073035;28;21123;-76
2022/04/06 01:07:40;;;;;;;21.37;7.97;;;10.30;66.90;;;;;;5076283;28;20468;-78
2022/04/06 01:10:06;;;;;;;19.90;8.63;;;10.30;65.80;;;;;;5075325;28;20379;-76
2022/04/06 01:12:35;;;;;;;24.38;8.65;;;10.20;67.00;;;;;;5075163;28;20410;-75
2022/04/06 01:15:01;;;;;;;20.30;8.38;;;10.30;67.60;;;;;;5073817;28;20487;-76
2022/04/06 01:17:32;;;;;;;24.67;8.70;;;10.20;66.80;;;;;;5072528;28;20925;-75
2022/04/06 01:20:00;;;;;;;24.53;8.20;;;10.20;67.50;;;;;;5072425;28;20463;-75
2022/04/06 01:22:26;;;;;;;18.40;7.80;;;10.30;65.80;;;;;;5072108;28;20392;-75
2022/04/06 01:24:53;;;;;;;17.80;8.00;;;10.30;66.20;;;;;;5072140;28;20396;-75
2022/04/06 01:27:19;;;;;;;18.83;8.13;;;10.30;66.20;;;;;;5071700;28;20541;-75
2022/04/06 01:29:45;;;;;;;19.88;7.60;;;10.20;66.50;;;;;;5071888;28;20791;-75
2022/04/06 01:32:17;;;;;;;21.33;8.70;;;10.20;65.30;;;;;;5070968;28;20472;-75
2022/04/06 01:34:43;;;;;;;20.45;7.93;;;10.10;68.00;;;;;;5071319;28;20408;-76
2022/04/06 01:37:11;;;;;;;21.25;8.18;;;10.20;66.60;;;;;;5053660;28;20512;-75
2022/04/06 01:39:37;;;;;;;21.17;7.65;;;10.20;66.30;;;;;;5072312;28;20431;-75
2022/04/06 01:42:07;;;;;;;21.52;7.35;;;10.20;64.80;;;;;;5071684;28;20733;-75
2022/04/06 01:44:34;;;;;;;17.80;7.03;;;10.20;65.00;;;;;;5071579;28;20383;-75
2022/04/06 01:47:00;;;;;;;18.05;7.55;;;10.20;65.60;;;;;;5087830;22;20430;-68
2022/04/06 01:52:13;;;;;;;17.90;7.40;;;10.30;61.80;;;;;;5091316;28;20373;-69
2022/04/06 01:54:41;;;;;;;20.95;7.28;;;10.20;65.10;;;;;;5090826;28;20406;-69
2022/04/06 01:57:07;;;;;;;19.38;7.47;;;10.20;64.70;;;;;;5090774;28;20381;-68
2022/04/06 01:59:32;;;;;;;18.58;6.78;;;10.10;64.70;;;;;;5072815;28;20378;-68
2022/04/06 02:01:58;;;;;;;20.33;6.80;;;10.20;62.40;;;;;;5090550;28;20405;-69
2022/04/06 02:04:24;;;;;;;14.90;6.32;;;10.30;62.50;;;;;;5090795;28;20385;-69
2022/04/06 02:06:49;;;;;;;22.47;6.90;;;10.30;62.80;;;;;;5090997;28;20374;-69
2022/04/06 02:09:15;;;;;;;19.93;6.50;;;10.40;60.80;;;;;;5091101;28;20381;-69
2022/04/06 02:11:42;;;;;;;13.20;6.07;;;10.30;62.30;;;;;;5091039;28;20831;-68
2022/04/06 02:14:08;;;;;;;19.73;6.13;;;10.20;61.90;;;;;;5090779;28;20437;-69
2022/04/06 02:16:35;;;;;;;16.15;6.60;;;10.20;62.00;;;;;;5090799;28;20413;-69
2022/04/06 02:19:01;;;;;;;22.40;5.68;;;10.20;61.50;;;;;;5090647;28;20374;-69
2022/04/06 02:21:27;;;;;;;16.30;6.55;;;10.20;60.80;;;;;;5090478;28;20378;-68
2022/04/06 02:23:52;;;;;;;16.27;6.00;;;10.30;60.20;;;;;;5094674;28;20419;-69
2022/04/06 02:26:18;;;;;;;17.92;6.68;;;10.30;58.90;;;;;;5094494;28;20384;-69
2022/04/06 02:28:43;;;;;;;22.23;6.70;;;10.20;59.50;;;;;;5094364;28;20738;-69
2022/04/06 02:31:09;;;;;;;14.57;6.10;;;10.20;59.50;;;;;;5094239;28;20424;-69
2022/04/06 02:33:34;;;;;;;22.17;6.47;;;10.20;60.10;;;;;;5076414;28;20405;-69
2022/04/06 02:36:00;;;;;;;18.73;6.40;;;10.20;60.90;;;;;;5094310;28;20421;-69
2022/04/06 02:38:26;;;;;;;16.83;5.90;;;10.20;59.60;;;;;;5094306;28;20393;-71
2022/04/06 02:40:51;;;;;;;15.67;6.20;;;10.20;60.00;;;;;;5094286;28;20381;-68
2022/04/06 02:43:17;;;;;;;14.80;5.60;;;10.20;59.20;;;;;;5094392;28;20465;-70
2022/04/06 02:45:43;;;;;;;15.33;6.30;;;10.20;58.40;;;;;;5094435;28;20878;-68
2022/04/06 02:48:08;;;;;;;21.03;6.67;;;10.30;59.60;;;;;;5093818;28;20754;-70
2022/04/06 02:50:34;;;;;;;14.77;5.67;;;10.20;59.30;;;;;;5094215;28;20392;-70
2022/04/06 02:52:59;;;;;;;12.33;5.87;;;10.20;59.20;;;;;;5093286;28;20512;-71
2022/04/06 02:55:25;;;;;;;16.00;6.77;;;10.20;58.80;;;;;;5073830;28;20388;-70
2022/04/06 02:57:51;;;;;;;14.73;6.13;;;10.20;58.40;;;;;;5073680;28;20388;-70
2022/04/06 03:00:18;;;;;;;23.03;6.50;;;10.20;58.30;;;;;;5073561;28;20387;-70
2022/04/06 03:02:44;;;;;;;17.05;6.95;;;10.20;59.00;;;;;;5073383;28;20376;-70
2022/04/06 03:05:10;;;;;;;12.30;6.27;;;10.20;59.00;;;;;;5073373;28;20462;-69
2022/04/06 03:07:35;;;;;;;13.85;6.60;;;10.20;58.20;;;;;;5073752;28;20459;-70
2022/04/06 03:10:01;;;;;;;16.33;6.50;;;10.20;58.80;;;;;;5073206;28;20721;-70
2022/04/06 03:12:27;;;;;;;19.67;6.75;;;10.20;57.30;;;;;;5073340;28;20441;-70
2022/04/06 03:14:53;;;;;;;21.77;7.40;;;10.20;59.00;;;;;;5073334;28;20407;-70
2022/04/06 03:17:18;;;;;;;14.03;6.30;;;10.20;59.00;;;;;;5073206;28;20380;-70
2022/04/06 03:19:44;;;;;;;17.23;8.00;;;10.20;59.10;;;;;;5073383;28;20829;-69
2022/04/06 03:22:16;;;;;;;18.87;8.00;;;10.20;58.90;;;;;;5072877;28;20412;-71
2022/04/06 03:24:42;;;;;;;16.30;7.80;;;10.20;58.50;;;;;;5073040;28;20470;-69
2022/04/06 03:27:08;;;;;;;14.25;7.70;;;10.20;57.70;;;;;;5072655;28;20494;-68
2022/04/06 03:29:33;;;;;;;20.33;7.95;;;10.20;58.00;;;;;;5073014;28;20425;-68
2022/04/06 03:31:59;;;;;;;22.80;8.40;;;10.20;56.90;;;;;;5072863;28;20388;-69
2022/04/06 03:34:24;;;;;;;19.58;7.85;;;10.20;56.80;;;;;;5071960;28;20415;-68
2022/04/06 03:36:50;;;;;;;23.90;8.60;;;10.10;58.50;;;;;;5072983;28;20736;-69
2022/04/06 03:39:15;;;;;;;18.27;8.37;;;10.10;59.00;;;;;;5073145;28;20380;-69
2022/04/06 03:41:41;;;;;;;18.10;8.20;;;10.10;58.10;;;;;;5072916;28;20975;-68
2022/04/06 03:44:06;;;;;;;15.40;8.00;;;10.10;58.60;;;;;;5055061;28;20406;-69
2022/04/06 03:46:32;;;;;;;16.80;7.50;;;10.10;59.60;;;;;;5054802;28;20399;-69
2022/04/06 03:48:58;;;;;;;21.20;7.87;;;10.10;57.80;;;;;;5072761;28;20419;-69
2022/04/06 03:51:23;;;;;;;17.63;8.37;;;10.10;58.10;;;;;;5054480;28;20390;-69
2022/04/06 03:53:49;;;;;;;23.37;9.00;;;10.00;59.50;;;;;;5080072;28;20398;-69
2022/04/06 03:56:14;;;;;;;17.43;8.07;;;10.00;59.70;;;;;;5092546;28;20374;-69
2022/04/06 03:58:40;;;;;;;24.77;9.37;;;10.00;59.20;;;;;;5092757;28;20366;-69
2022/04/06 04:01:06;;;;;;;15.47;8.03;;;10.00;59.90;;;;;;5092604;28;20927;-68
2022/04/06 04:03:32;;;;;;;19.73;8.18;;;9.90;59.40;;;;;;5092730;28;20382;-69
2022/04/06 04:05:57;;;;;;;22.20;8.20;;;9.90;58.80;;;;;;5092467;28;20895;-68
2022/04/06 04:08:23;;;;;;;18.50;7.88;;;9.80;58.10;;;;;;5092618;28;20386;-68
2022/04/06 04:10:49;;;;;;;21.13;8.57;;;9.80;58.30;;;;;;5092411;28;20791;-68
2022/04/06 04:13:14;;;;;;;14.52;8.30;;;9.80;58.50;;;;;;5092583;28;20423;-68
2022/04/06 04:15:40;;;;;;;20.77;9.68;;;9.70;58.30;;;;;;5092488;28;20858;-69
2022/04/06 04:18:05;;;;;;;26.92;11.25;;;9.50;60.40;;;;;;5092080;28;20500;-69
2022/04/06 04:20:31;;;;;;;19.83;9.75;;;9.50;61.10;;;;;;5092151;28;20509;-68
2022/04/06 04:22:56;;;;;;;20.42;9.20;;;9.40;61.40;;;;;;5092050;28;20777;-69
2022/04/06 04:25:22;;;;;;;17.63;9.20;;;9.50;57.50;;;;;;5092756;28;20754;-69
2022/04/06 04:27:48;;;;;;;22.40;10.10;;;9.60;55.20;;;;;;5092926;28;20889;-68
2022/04/06 04:30:13;;;;;;;19.17;9.90;;;9.70;55.50;;;;;;5074449;28;20382;-69
2022/04/06 04:32:39;;;;;;;17.00;8.63;;;9.70;55.70;;;;;;5092032;28;20373;-72
2022/04/06 04:35:06;;;;;;;19.15;8.32;;;9.80;54.00;;;;;;5091914;28;20402;-70
2022/04/06 04:37:32;;;;;;;17.88;7.00;;;9.80;53.00;;;;;;5092107;28;20377;-69
2022/04/06 04:39:58;;;;;;;15.85;6.55;;;9.90;51.80;;;;;;5092076;28;20377;-70
2022/04/06 04:42:24;;;;;;;17.33;6.97;;;10.00;51.10;;;;;;5091876;28;20378;-69
2022/04/06 04:44:49;;;;;;;11.98;6.15;;;10.00;51.30;;;;;;5091782;28;20378;-68
2022/04/06 04:47:16;;;;;;;14.13;6.32;;;9.90;49.90;;;;;;5073314;28;20470;-68
2022/04/06 04:49:43;;;;;;;15.60;5.88;;;10.00;50.10;;;;;;5091861;28;20463;-68
2022/04/06 04:52:08;;;;;;;17.25;5.85;;;10.00;50.00;;;;;;5091685;28;20474;-69
2022/04/06 04:54:34;;;;;;;16.42;6.50;;;10.00;49.30;;;;;;5077505;28;20486;-69
2022/04/06 04:56:59;;;;;;;14.45;5.65;;;10.10;48.20;;;;;;5072169;28;20380;-69
2022/04/06 04:59:25;;;;;;;15.52;5.93;;;10.10;47.60;;;;;;5071496;28;20376;-69
2022/04/06 05:01:51;;;;;;;14.52;5.65;;;10.10;47.90;;;;;;5071217;28;20387;-71
2022/04/06 05:04:16;;;;;;;15.70;6.40;;;10.10;47.20;;;;;;5071317;28;20462;-70
2022/04/06 05:06:42;;;;;;;15.90;5.82;;;10.10;47.20;;;;;;5071442;28;20728;-70
2022/04/06 05:09:07;;;;;;;16.25;5.78;;;10.20;46.50;;;;;;5071859;28;20371;-70
2022/04/06 05:11:33;;;;;;;15.90;5.70;;;10.20;47.10;;;;;;5072402;28;20415;-70
2022/04/06 05:13:59;;;;;;;12.38;5.95;;;10.20;46.10;;;;;;5071687;28;20479;-69
2022/04/06 05:16:24;;;;;;;15.43;6.15;;;10.20;47.20;;;;;;5071057;28;20422;-70
2022/04/06 05:18:52;;;;;;;15.57;6.20;;;10.20;47.60;;;;;;5071412;28;20386;-74
2022/04/06 05:21:18;;;;;;;20.05;7.45;;;10.20;47.10;;;;;;5071159;28;20388;-70
2022/04/06 05:23:43;;;;;;;20.00;7.18;;;10.20;48.10;;;;;;5070957;28;20404;-70
2022/04/06 05:26:09;;;;;;;16.60;6.78;;;10.20;48.40;;;;;;5070526;28;20380;-68
2022/04/06 05:28:34;;;;;;;19.15;8.20;;;10.30;48.00;;;;;;5071033;28;20415;-69
2022/04/06 05:31:00;;;;;;;16.65;10.18;;;10.30;48.60;;;;;;5070929;28;20433;-69
2022/04/06 05:33:26;;;;;;;22.58;11.93;;;10.30;48.50;;;;;;5071054;28;20456;-69
2022/04/06 05:35:51;;;;;;;27.03;12.70;;;10.30;48.20;;;;;;5071836;28;20409;-69
2022/04/06 05:38:17;;;;;;;25.87;12.30;;;10.30;48.40;;;;;;5070701;28;20376;-69
2022/04/06 05:40:42;;;;;;;23.00;10.87;;;10.30;49.70;;;;;;5070903;28;20387;-70
2022/04/06 05:43:08;;;;;;;25.43;11.20;;;10.30;49.90;;;;;;5070251;28;20386;-70
2022/04/06 05:45:34;;;;;;;19.97;10.83;;;10.30;49.20;;;;;;5070520;28;20384;-69
2022/04/06 05:47:59;;;;;;;23.90;9.73;;;10.30;50.10;;;;;;5070216;28;20391;-69
2022/04/06 05:50:25;;;;;;;21.57;9.27;;;10.40;48.60;;;;;;5070416;28;20386;-69
2022/04/06 05:52:50;;;;;;;20.63;8.90;;;10.40;49.70;;;;;;5052429;28;20484;-70
2022/04/06 05:55:16;;;;;;;16.23;9.03;;;10.50;49.30;;;;;;5090086;28;20394;-69
2022/04/06 05:57:42;;;;;;;24.53;9.30;;;10.40;48.50;;;;;;5089911;28;20742;-69
2022/04/06 06:00:09;;;;;;;20.43;8.30;;;10.40;49.00;;;;;;5090055;28;20870;-69
2022/04/06 06:02:37;;;;;;;21.23;7.88;;;10.50;48.20;;;;;;5090314;28;20734;-69
2022/04/06 06:05:03;;;;;;;17.17;7.15;;;10.50;47.40;;;;;;5071951;28;20876;-69
2022/04/06 06:07:29;;;;;;;18.77;7.45;;;10.50;48.10;;;;;;5090656;28;20382;-70
2022/04/06 06:09:55;;;;;;;20.15;7.70;;;10.40;48.10;;;;;;5090717;28;20442;-69
2022/04/06 06:12:20;;;;;;;17.67;7.15;;;10.40;47.70;;;;;;5090382;28;20408;-70
2022/04/06 06:14:46;;;;;;;12.35;6.80;;;10.50;48.00;;;;;;5090632;28;20403;-70
2022/04/06 06:17:11;;;;;;;17.70;7.20;;;10.50;46.40;;;;;;5090579;28;20856;-69
2022/04/06 06:19:37;;;;;;;19.10;6.60;;;10.50;47.40;;;;;;5090305;28;20477;-69
2022/04/06 06:22:02;;;;;;;17.63;6.57;;;10.60;46.40;;;;;;5090180;28;20376;-69
2022/04/06 06:24:28;;;;;;;19.73;6.10;;;10.50;45.10;;;;;;5090555;28;20382;-69
2022/04/06 06:26:54;;;;;;;17.13;5.83;;;10.50;45.00;;;;;;5071821;28;20393;-69
2022/04/06 06:29:20;;;;;;;13.18;5.28;;;10.50;45.10;;;;;;5090285;28;20390;-69
2022/04/06 06:31:46;;;;;;;16.95;5.68;;;10.60;44.50;;;;;;5090122;28;20439;-69
2022/04/06 06:34:12;;;;;;;16.93;5.00;;;10.50;45.50;;;;;;5090233;28;20398;-70
2022/04/06 06:36:37;;;;;;;10.47;4.60;;;10.50;45.00;;;;;;5090144;28;20371;-70
2022/04/06 06:39:03;;;;;;;17.30;5.40;;;10.50;45.70;;;;;;5090101;28;20377;-70
2022/04/06 06:41:29;;;;;;;13.38;5.47;;;10.50;44.80;;;;;;5090163;28;20378;-70
2022/04/06 06:43:56;;;;;;;13.23;4.80;;;10.60;44.90;;;;;;5089961;28;20464;-70
2022/04/06 06:46:22;;;;;;;12.45;5.20;;;10.70;44.40;;;;;;5089551;28;20417;-70
2022/04/06 06:48:49;;;;;;;17.58;5.50;;;10.60;45.40;;;;;;5089532;28;20405;-70
2022/04/06 06:51:16;;;;;;;15.65;6.63;;;10.50;46.80;;;;;;5090160;28;20383;-70
2022/04/06 06:53:42;;;;;;;17.30;6.40;;;10.60;44.80;;;;;;5083129;28;20483;-70
2022/04/06 06:56:08;;;;;;;15.57;7.10;;;10.60;46.10;;;;;;5069839;28;20399;-70
2022/04/06 06:58:34;;;;;;;12.25;6.03;;;10.70;44.80;;;;;;5069955;28;20372;-70
2022/04/06 07:01:00;;;;;;;16.37;6.00;;;10.80;43.10;;;;;;5071213;28;20440;-70
2022/04/06 07:03:26;;;;;;;15.40;6.50;;;10.80;43.10;;;;;;5073364;28;20426;-70
2022/04/06 07:05:52;;;;;;;12.90;6.10;;;10.90;42.70;;;;;;5076613;28;20383;-68
2022/04/06 07:08:17;;;;;;;16.83;6.72;;;10.90;42.80;;;;;;5074544;28;20784;-70
2022/04/06 07:10:47;;;;;;;19.17;6.22;;;10.80;43.60;;;;;;5073335;28;20398;-69
2022/04/06 07:13:15;;;;;;;14.45;5.25;;;10.90;43.00;;;;;;5073350;28;20437;-69
2022/04/06 07:15:41;;;;;;;13.05;5.63;;;10.90;44.20;;;;;;5073748;28;20415;-69
2022/04/06 07:18:08;;;;;;;10.95;5.20;;;10.80;43.40;;;;;;5073580;28;20426;-69
2022/04/06 07:20:37;;;;;;;13.98;5.30;;;10.80;42.10;;;;;;5073358;28;20446;-69
2022/04/06 07:23:06;;;;;;;12.38;5.78;;;10.80;42.70;;;;;;5073196;28;20470;-69
2022/04/06 07:25:33;;;;;;;13.13;5.50;;;10.90;43.90;;;;;;5072966;28;20384;-69
2022/04/06 07:27:58;;;;;;;14.77;5.10;;;10.90;42.90;;;;;;5073049;28;20380;-69
2022/04/06 07:30:24;;;;;;;8.83;4.27;;;11.00;42.50;;;;;;5072940;28;20383;-69
2022/04/06 07:32:50;;;;;;;10.10;4.80;;;10.90;42.10;;;;;;5072813;28;20464;-70
2022/04/06 07:35:18;;;;;;;6.53;4.60;;;10.90;43.00;;;;;;5054539;28;20450;-69
2022/04/06 07:37:47;;;;;;;12.43;4.70;;;10.80;43.50;;;;;;5072612;28;20866;-69
2022/04/06 07:40:14;;;;;;;12.82;4.70;;;10.80;44.40;;;;;;5072761;28;20371;-69
2022/04/06 07:42:41;;;;;;;12.35;4.95;;;10.70;44.30;;;;;;5072570;28;20384;-71
2022/04/06 07:45:09;;;;;;;12.07;5.00;;;10.70;44.70;;;;;;5072515;28;20380;-70
2022/04/06 07:47:39;;;;;;;13.15;4.78;;;10.70;44.70;;;;;;5072508;28;20480;-70
2022/04/06 07:50:05;;;;;;;10.50;4.78;;;10.70;44.90;;;;;;5072312;28;20722;-69
2022/04/06 07:52:31;;;;;;;12.43;4.88;;;10.70;45.10;;;;;;5072095;28;20494;-69
2022/04/06 07:54:57;;;;;;;13.20;4.65;;;10.70;44.50;;;;;;5089781;28;20409;-69
2022/04/06 07:57:26;;;;;;;16.13;5.50;;;10.70;43.90;;;;;;5092780;28;20374;-68
2022/04/06 07:59:53;;;;;;;10.68;4.63;;;10.60;45.30;;;;;;5092567;28;20389;-69
2022/04/06 08:02:19;;;;;;;12.57;5.00;;;10.80;43.70;;;;;;5092587;28;20890;-68
2022/04/06 08:04:44;;;;;;;7.07;4.40;;;10.80;43.30;;;;;;5092447;28;20378;-69
2022/04/06 08:07:10;;;;;;;10.20;4.53;;;10.90;42.40;;;;;;5092037;28;20386;-69
2022/04/06 08:09:35;;;;;;;12.13;4.72;;;11.00;42.70;;;;;;5092731;28;20382;-69
2022/04/06 08:12:01;;;;;;;11.97;4.33;;;11.00;41.90;;;;;;5092247;28;20924;-69
2022/04/06 08:14:28;;;;;;;8.98;3.63;;;11.10;41.20;;;;;;5092580;28;20497;-69
2022/04/06 08:16:55;;;;;;;12.02;3.83;;;11.20;39.30;;;;;;5092959;28;20825;-69
2022/04/06 08:19:22;;;;;;;8.10;4.10;;;11.30;38.80;;;;;;5093756;28;20408;-69
2022/04/06 08:21:48;;;;;;;9.40;4.05;;;11.30;38.70;;;;;;5094405;28;20381;-69
2022/04/06 08:24:14;;;;;;;7.28;4.00;;;11.50;39.00;;;;;;5093241;28;20385;-70
2022/04/06 08:26:39;;;;;;;16.50;4.50;;;11.50;37.90;;;;;;5092885;28;20419;-69
2022/04/06 08:29:05;;;;;;;10.90;3.70;;;11.50;37.10;;;;;;5093014;28;20386;-69
2022/04/06 08:31:30;;;;;;;8.03;3.50;;;11.40;37.70;;;;;;5092488;28;20481;-69
2022/04/06 08:33:56;;;;;;;9.97;3.77;;;11.50;36.90;;;;;;5092016;28;20401;-69
2022/04/06 08:36:21;;;;;;;7.50;3.30;;;11.60;35.60;;;;;;5092005;28;20794;-69
2022/04/06 08:38:47;;;;;;;9.40;3.40;;;11.70;35.00;;;;;;5091782;28;20461;-69
2022/04/06 08:41:13;;;;;;;8.60;3.22;;;11.80;34.40;;;;;;5091885;28;20851;-69
2022/04/06 08:43:39;;;;;;;10.68;3.17;;;11.90;32.50;;;;;;5091764;28;20393;-70
2022/04/06 08:46:04;;;;;;;7.50;3.10;;;12.00;32.10;;;;;;5091458;28;20382;-69
2022/04/06 08:48:32;;;;;;;10.70;3.10;;;12.00;31.80;;;;;;5091154;28;20390;-69
2022/04/06 08:51:00;;;;;;;13.18;2.80;;;12.10;31.90;;;;;;5091476;28;20382;-69
2022/04/06 08:53:26;;;;;;;9.40;2.93;;;12.40;30.40;;;;;;5087015;28;20380;-69
2022/04/06 08:55:51;;;;;;;13.32;3.20;;;12.70;28.80;;;;;;5071108;28;20437;-69
2022/04/06 08:58:17;;;;;;;8.55;2.60;;;12.80;27.00;;;;;;5071111;28;20391;-69
2022/04/06 09:00:43;;;;;;;8.70;2.47;;;13.00;26.70;;;;;;5070951;28;20376;-69
2022/04/06 09:03:09;;;;;;;8.57;2.80;;;13.00;26.30;;;;;;5070667;28;20415;-69
2022/04/06 09:05:35;;;;;;;5.85;3.00;;;13.00;25.90;;;;;;5070925;28;20821;-68
2022/04/06 09:08:02;;;;;;;6.00;2.70;;;13.00;26.50;;;;;;5070908;28;20450;-69
2022/04/06 09:10:31;;;;;;;10.13;2.90;;;13.00;25.80;;;;;;5070792;28;20391;-69
2022/04/06 09:13:08;;;;;;;8.27;2.40;;;12.90;26.70;;;;;;5070408;28;20379;-70
2022/04/06 09:15:34;;;;;;;12.02;3.00;;;13.20;25.80;;;;;;5071046;28;20779;-69
2022/04/06 09:18:01;;;;;;;4.32;2.20;;;13.40;25.10;;;;;;5070698;28;20460;-69
2022/04/06 09:20:27;;;;;;;10.48;3.40;;;13.50;24.50;;;;;;5070812;28;20383;-69
2022/04/06 09:22:53;;;;;;;8.57;2.90;;;13.40;24.70;;;;;;5070543;28;20378;-69
2022/04/06 09:25:20;;;;;;;6.80;2.60;;;13.40;24.50;;;;;;5070597;28;20442;-69
2022/04/06 09:27:46;;;;;;;6.32;3.10;;;13.30;24.40;;;;;;5070179;28;20384;-70
2022/04/06 09:30:12;;;;;;;7.25;2.25;;;13.30;24.60;;;;;;5070799;28;20383;-70
2022/04/06 09:32:41;;;;;;;11.07;2.40;;;13.20;24.30;;;;;;5069680;28;20432;-71
2022/04/06 09:35:25;;;;;;;7.65;2.92;;;13.30;24.40;;;;;;5070502;28;20403;-70
2022/04/06 09:38:09;;;;;;;7.35;2.60;;;13.40;24.00;;;;;;5070627;28;20430;-70
2022/04/06 09:40:35;;;;;;;7.53;2.60;;;13.20;24.10;;;;;;5070672;28;20387;-69
2022/04/06 09:43:00;;;;;;;4.33;2.40;;;13.20;24.60;;;;;;5070217;28;20384;-69
2022/04/06 09:48:13;;;;;;;7.20;2.50;;;13.00;25.00;;;;;;5071535;28;20406;-70
2022/04/06 09:50:39;;;;;;;6.97;2.27;;;12.90;25.30;;;;;;5072509;28;20396;-70
2022/04/06 09:53:06;;;;;;;8.73;2.47;;;12.80;25.30;;;;;;5072437;28;20383;-69
2022/04/06 09:55:32;;;;;;;7.55;2.60;;;12.70;25.50;;;;;;5091050;28;20767;-68
2022/04/06 09:57:59;;;;;;;8.40;2.50;;;12.70;26.20;;;;;;5092832;28;20370;-69
2022/04/06 10:00:30;;;;;;;7.78;2.60;;;12.60;25.80;;;;;;5074240;28;20473;-70
2022/04/06 10:03:06;;;;;;;11.02;2.67;;;12.50;26.40;;;;;;5091855;28;20435;-69
2022/04/06 10:05:33;;;;;;;8.77;2.60;;;12.60;26.30;;;;;;5091679;28;20878;-69
2022/04/06 10:08:01;;;;;;;7.18;2.40;;;12.50;26.70;;;;;;5090625;28;20390;-68
2022/04/06 10:10:27;;;;;;;8.30;2.70;;;12.50;26.60;;;;;;5090365;28;20386;-69
2022/04/06 10:12:53;;;;;;;8.43;2.17;;;12.40;26.80;;;;;;5090018;28;20386;-69
2022/04/06 10:15:20;;;;;;;8.27;2.60;;;12.40;26.90;;;;;;5090143;28;20898;-69
2022/04/06 10:17:45;;;;;;;12.23;2.30;;;12.30;27.70;;;;;;5090276;28;20382;-69
2022/04/06 10:20:28;;;;;;;12.10;3.00;;;12.30;27.50;;;;;;5090134;28;20450;-69
2022/04/06 10:23:20;;;;;;;13.23;3.13;;;12.30;28.40;;;;;;5090113;28;20884;-69
2022/04/06 10:25:55;;;;;;;9.95;2.83;;;12.30;28.30;;;;;;5075635;28;20401;-70
2022/04/06 10:28:22;;;;;;;11.77;3.10;;;12.40;28.60;;;;;;5090110;28;20426;-70
2022/04/06 10:31:12;;;;;;;7.30;2.47;;;12.50;28.00;;;;;;5090205;28;20378;-70
2022/04/06 10:33:38;;;;;;;6.23;2.60;;;12.80;27.50;;;;;;5090083;28;20439;-70
2022/04/06 10:36:28;;;;;;;9.97;2.40;;;12.80;27.50;;;;;;5089913;28;20842;-69
2022/04/06 10:39:05;;;;;;;6.82;2.50;;;12.80;27.20;;;;;;5090291;28;20444;-69
2022/04/06 10:41:32;;;;;;;7.57;2.95;;;12.90;27.10;;;;;;5089587;28;20382;-69
2022/04/06 10:43:57;;;;;;;5.45;2.20;;;13.00;26.90;;;;;;5092367;28;20385;-69
2022/04/06 10:46:40;;;;;;;9.88;2.45;;;13.00;26.10;;;;;;5093553;28;20405;-69
2022/04/06 10:49:09;;;;;;;9.15;3.08;;;13.10;26.80;;;;;;5093697;28;20382;-70
2022/04/06 10:51:39;;;;;;;5.65;2.42;;;13.00;26.60;;;;;;5093934;28;20482;-69
2022/04/06 10:54:14;;;;;;;7.05;3.05;;;13.00;27.30;;;;;;5084542;28;20880;-68
2022/04/06 10:56:48;;;;;;;8.20;3.00;;;13.00;27.60;;;;;;5073644;28;20814;-70
2022/04/06 10:59:24;;;;;;;6.70;2.50;;;13.20;27.20;;;;;;5075338;28;20392;-71
2022/04/06 11:02:20;;;;;;;6.50;2.23;;;13.30;26.70;;;;;;5073295;28;20455;-70
2022/04/06 11:04:47;;;;;;;6.22;2.00;;;13.30;26.80;;;;;;5064231;28;20803;-69
2022/04/06 11:07:16;;;;;;;4.95;2.42;;;13.20;27.30;;;;;;5072812;28;20386;-70
2022/04/06 11:12:32;;;;;;;8.68;2.47;;;13.20;27.40;;;;;;5073593;28;20444;-69
2022/04/06 11:14:58;;;;;;;4.60;2.22;;;13.10;28.20;;;;;;5073203;28;20404;-70
2022/04/06 11:17:34;;;;;;;6.95;2.50;;;13.00;28.40;;;;;;5073459;28;20705;-70
2022/04/06 11:20:09;;;;;;;4.00;2.10;;;12.90;28.50;;;;;;5055386;28;20752;-70
2022/04/06 11:22:37;;;;;;;5.93;2.90;;;13.00;28.20;;;;;;5073589;28;20383;-70
2022/04/06 11:25:07;;;;;;;8.25;2.50;;;13.20;28.30;;;;;;5073444;28;20484;-70
2022/04/06 11:27:35;;;;;;;10.10;2.92;;;13.20;28.20;;;;;;5072804;28;20384;-69
2022/04/06 11:30:12;;;;;;;9.30;3.20;;;13.20;28.60;;;;;;5072977;28;20888;-70
2022/04/06 11:32:38;;;;;;;7.22;2.92;;;13.20;28.20;;;;;;5072720;28;20388;-70
2022/04/06 11:35:05;;;;;;;6.30;3.10;;;13.30;27.60;;;;;;5072574;28;20403;-70
2022/04/06 11:37:32;;;;;;;6.80;2.75;;;13.10;28.60;;;;;;5072645;28;20395;-70
2022/04/06 11:39:59;;;;;;;7.68;3.08;;;13.00;28.50;;;;;;5054403;28;20411;-69
2022/04/06 11:42:25;;;;;;;6.93;2.80;;;12.90;29.30;;;;;;5073358;28;20875;-70
2022/04/06 11:44:51;;;;;;;6.68;2.92;;;12.90;30.10;;;;;;5073436;28;20400;-70
2022/04/06 11:47:33;;;;;;;7.83;2.70;;;12.70;30.60;;;;;;5072839;28;20430;-70
2022/04/06 11:50:05;;;;;;;7.57;3.20;;;12.60;32.00;;;;;;5072798;28;20510;-70
2022/04/06 11:52:31;;;;;;;8.80;2.83;;;12.50;31.80;;;;;;5072389;28;20395;-69
2022/04/06 11:54:57;;;;;;;11.68;2.63;;;12.60;32.00;;;;;;5088699;28;20412;-70
2022/04/06 11:57:37;;;;;;;6.78;2.50;;;12.70;32.30;;;;;;5093031;28;20378;-69
2022/04/06 12:00:06;;;;;;;4.17;2.30;;;12.80;30.30;;;;;;5093186;28;20656;-70
2022/04/06 12:02:54;;;;;;;5.25;2.45;;;12.80;30.20;;;;;;5092172;28;20417;-69
2022/04/06 12:05:21;;;;;;;10.97;2.87;;;12.80;30.70;;;;;;5092581;28;20546;-69
2022/04/06 12:07:48;;;;;;;6.35;2.50;;;12.80;30.40;;;;;;5092186;28;20720;-69
2022/04/06 12:10:14;;;;;;;6.80;2.50;;;13.00;30.20;;;;;;5092316;28;20370;-69
2022/04/06 12:12:41;;;;;;;5.90;2.38;;;13.20;28.30;;;;;;5092653;28;20382;-70
2022/04/06 12:15:08;;;;;;;6.07;2.33;;;13.20;27.70;;;;;;5092202;28;20398;-70
2022/04/06 12:17:35;;;;;;;6.40;2.00;;;13.20;27.90;;;;;;5092131;28;20378;-69
2022/04/06 12:20:23;;;;;;;8.40;2.65;;;13.10;28.10;;;;;;5092015;28;20814;-68
2022/04/06 12:23:03;;;;;;;8.30;2.65;;;13.00;28.70;;;;;;5091829;28;20457;-70
2022/04/06 12:25:30;;;;;;;7.57;2.40;;;13.00;28.90;;;;;;5074224;28;20386;-69
2022/04/06 12:28:17;;;;;;;8.00;2.70;;;13.00;28.80;;;;;;5091737;28;20386;-69
2022/04/06 12:31:01;;;;;;;9.30;2.40;;;12.90;28.60;;;;;;5091736;28;20423;-69
2022/04/06 12:33:47;;;;;;;6.30;2.60;;;12.90;28.70;;;;;;5092199;28;20886;-68
2022/04/06 12:36:13;;;;;;;7.87;2.33;;;12.80;29.00;;;;;;5092322;28;20412;-69
2022/04/06 12:38:42;;;;;;;5.88;2.67;;;12.70;29.80;;;;;;5092117;28;20402;-69
2022/04/06 12:41:09;;;;;;;8.25;2.58;;;12.70;29.80;;;;;;5091693;28;20468;-68
2022/04/06 12:43:45;;;;;;;7.47;2.60;;;12.70;30.00;;;;;;5092283;28;20446;-69
2022/04/06 12:46:12;;;;;;;5.85;2.40;;;12.80;29.10;;;;;;5091719;28;20378;-70
2022/04/06 12:48:37;;;;;;;5.57;2.20;;;12.90;28.70;;;;;;5091433;28;20386;-70
2022/04/06 12:51:32;;;;;;;5.18;2.30;;;13.00;28.70;;;;;;5091416;28;21015;-69